Terminal Aerodrome Forecast
Issued by NWS

Home | Current Version | Previous Version | Text Only | Print | Product List | Glossary On
Versions: 1 2 3 4 5 6 7 8 9 10 11 12 13 14 15 16 17 18 19 20 21 22 23
650
FTUS43 KIND 232339
TAFBMG
TAF
KBMG 232339Z 2400/2424 35009KT P6SM SCT015 BKN040
      TEMPO 2400/2401 BKN015
     FM240100 34007KT P6SM FEW050 BKN250
     FM241300 30006KT P6SM SCT130
      AMD LTD TO CLD VIS AND WIND 2401/2413=

USA.gov is the U.S. government's official web portal to all federal, state and local government web resources and services.